Time;durP1;ratioP1;P1;durP2;ratioP2;P2;SDS_P1;SDS_P2;PMS_P1;PMS_P2;Temp;Humidity;BMP_temperature;BMP_pressure;BME280_temperature;BME280_humidity;BME280_pressure;Samples;Min_cycle;Max_cycle;Signal;HPM_P1;HPM_P2
2023/01/18 00:00:49;;;;;;;45.53;21.30;;;;;;;0.21;100.00;97887.94;5071021;28;20028;-69
2023/01/18 00:03:15;;;;;;;49.33;22.92;;;;;;;0.30;100.00;97893.44;5071429;28;20020;-68
2023/01/18 00:05:40;;;;;;;44.13;21.63;;;;;;;0.33;100.00;97884.06;5036561;28;20461;-68
2023/01/18 00:08:10;;;;;;;47.65;22.58;;;;;;;0.37;100.00;97890.28;5053250;28;20540;-67
2023/01/18 00:10:36;;;;;;;49.80;22.35;;;;;;;0.40;100.00;97897.72;5071407;28;20029;-69
2023/01/18 00:13:02;;;;;;;47.15;20.42;;;;;;;0.31;100.00;97883.78;5036407;28;20021;-69
2023/01/18 00:15:27;;;;;;;54.17;23.75;;;;;;;0.36;100.00;97885.91;5072348;28;20040;-68
2023/01/18 00:17:53;;;;;;;49.42;23.10;;;;;;;0.33;100.00;97884.06;5073604;28;20492;-67
2023/01/18 00:20:22;;;;;;;54.00;24.40;;;;;;;0.29;100.00;97878.63;5073414;28;20389;-67
2023/01/18 00:22:48;;;;;;;50.17;22.65;;;;;;;0.22;100.00;97872.63;5073542;28;20027;-68
2023/01/18 00:25:14;;;;;;;55.35;24.08;;;;;;;0.22;100.00;97886.69;5073363;28;20020;-67
2023/01/18 00:27:44;;;;;;;53.55;23.73;;;;;;;0.24;100.00;97886.94;5073077;28;20051;-67
2023/01/18 00:30:10;;;;;;;52.95;23.05;;;;;;;0.28;100.00;97877.06;5051840;28;20041;-68
2023/01/18 00:32:35;;;;;;;57.75;25.85;;;;;;;0.34;100.00;97880.00;5035226;28;20043;-68
2023/01/18 00:35:03;;;;;;;59.50;24.88;;;;;;;0.37;100.00;97879.78;5053179;28;20021;-67
2023/01/18 00:37:31;;;;;;;52.60;23.50;;;;;;;0.38;100.00;97909.44;5053209;28;20036;-67
2023/01/18 00:39:56;;;;;;;47.60;22.15;;;;;;;0.37;100.00;97895.91;5053108;28;20029;-68
2023/01/18 00:45:06;;;;;;;45.13;21.33;;;;;;;0.45;100.00;97900.63;5053169;28;20067;-68
2023/01/18 00:47:32;;;;;;;50.42;22.15;;;;;;;0.47;100.00;97895.28;5053381;28;20032;-68
2023/01/18 00:49:57;;;;;;;49.83;22.33;;;;;;;0.50;100.00;97902.78;5056962;28;20369;-68
2023/01/18 00:52:22;;;;;;;51.28;23.13;;;;;;;0.49;100.00;97895.59;5057088;28;20499;-68
2023/01/18 00:54:48;;;;;;;50.92;23.48;;;;;;;0.49;100.00;97887.16;5056855;28;20370;-68
2023/01/18 00:57:13;;;;;;;52.88;23.00;;;;;;;0.50;100.00;97883.09;5055612;28;20025;-67
2023/01/18 00:59:39;;;;;;;45.13;20.35;;;;;;;0.51;100.00;97884.66;5056836;28;20051;-68
2023/01/18 01:02:04;;;;;;;50.83;23.58;;;;;;;0.48;100.00;97873.59;5056972;28;20031;-68
2023/01/18 01:07:13;;;;;;;52.40;22.40;;;;;;;0.48;100.00;97871.56;5056565;28;20039;-67
2023/01/18 01:09:39;;;;;;;51.70;22.30;;;;;;;0.52;100.00;97866.53;5056473;28;20028;-69
2023/01/18 01:26:02;;;;;;;53.05;23.20;;;;;;;0.63;100.00;97843.47;5056392;28;20032;-70
2023/01/18 01:28:27;;;;;;;54.00;22.40;;;;;;;0.63;100.00;97832.22;5039312;28;20107;-68
2023/01/18 01:30:57;;;;;;;47.22;22.55;;;;;;;0.63;100.00;97835.03;5055068;28;20469;-69
2023/01/18 01:33:23;;;;;;;49.30;23.40;;;;;;;0.63;100.00;97837.84;5038333;28;20032;-71
2023/01/18 01:35:48;;;;;;;43.55;21.63;;;;;;;0.64;100.00;97847.06;5055167;28;20021;-70
2023/01/18 01:38:14;;;;;;;50.55;24.27;;;;;;;0.63;100.00;97851.91;5055174;28;20099;-69
2023/01/18 01:40:39;;;;;;;46.60;23.27;;;;;;;0.62;100.00;97850.34;5056099;28;20108;-69
2023/01/18 01:43:10;;;;;;;58.08;23.42;;;;;;;0.56;100.00;97844.66;5055199;28;20104;-69
2023/01/18 01:45:36;;;;;;;51.38;24.80;;;;;;;0.52;100.00;97844.06;5054716;28;20017;-68
2023/01/18 01:48:01;;;;;;;47.55;24.20;;;;;;;0.53;100.00;97842.03;5054246;28;20031;-68
2023/01/18 01:50:31;;;;;;;48.50;21.55;;;;;;;0.51;100.00;97862.19;5036444;28;20028;-70
2023/01/18 01:52:57;;;;;;;44.38;22.33;;;;;;;0.45;100.00;97852.88;5052518;28;20021;-69
2023/01/18 01:55:34;;;;;;;52.40;23.67;;;;;;;0.38;100.00;97850.44;5052491;28;20378;-70
2023/01/18 01:58:03;;;;;;;50.58;23.33;;;;;;;0.33;100.00;97845.50;5053657;28;20132;-69
2023/01/18 02:00:29;;;;;;;52.75;22.85;;;;;;;0.37;100.00;97848.16;5035163;28;20052;-70
2023/01/18 02:02:58;;;;;;;48.35;23.08;;;;;;;0.35;100.00;97848.63;5052267;28;20102;-70
2023/01/18 02:05:23;;;;;;;53.83;24.20;;;;;;;0.34;100.00;97832.25;5053331;28;20025;-68
2023/01/18 02:07:49;;;;;;;50.55;22.63;;;;;;;0.37;100.00;97825.69;5053269;28;20025;-71
2023/01/18 02:10:15;;;;;;;50.80;22.75;;;;;;;0.35;100.00;97826.16;5035443;28;20048;-68
2023/01/18 02:12:44;;;;;;;48.65;21.70;;;;;;;0.39;100.00;97837.97;5052339;28;20372;-69
2023/01/18 02:15:10;;;;;;;45.38;22.13;;;;;;;0.42;100.00;97842.59;5052417;28;20021;-68
2023/01/18 02:18:06;;;;;;;43.03;22.70;;;;;;;0.45;100.00;97838.84;5053272;28;20025;-68
2023/01/18 02:20:42;;;;;;;50.50;21.13;;;;;;;0.47;100.00;97841.91;5052106;28;20487;-69
2023/01/18 02:23:29;;;;;;;47.42;21.50;;;;;;;0.50;100.00;97837.38;5053271;28;20102;-69
2023/01/18 02:26:22;;;;;;;49.72;22.13;;;;;;;0.50;100.00;97837.38;5053762;28;20032;-70
2023/01/18 02:29:01;;;;;;;49.00;23.15;;;;;;;0.50;100.00;97840.97;5055377;28;20027;-70
2023/01/18 02:31:31;;;;;;;47.92;23.17;;;;;;;0.49;100.00;97836.59;5053892;28;20053;-68
2023/01/18 02:34:30;;;;;;;49.50;21.60;;;;;;;0.52;100.00;97835.63;5054061;28;20021;-68
2023/01/18 02:37:00;;;;;;;51.05;23.75;;;;;;;0.58;100.00;97836.50;5013748;28;20029;-69
2023/01/18 02:39:37;;;;;;;45.08;23.40;;;;;;;0.61;100.00;97843.19;5037195;28;20020;-69
2023/01/18 02:47:48;;;;;;;47.03;21.45;;;;;;;0.73;100.00;97849.75;5054311;28;20059;-71
2023/01/18 02:50:26;;;;;;;47.05;21.88;;;;;;;0.76;100.00;97852.38;5053769;28;20082;-69
2023/01/18 02:52:52;;;;;;;50.58;23.52;;;;;;;0.76;100.00;97843.97;5054754;28;20055;-69
2023/01/18 02:55:38;;;;;;;47.28;21.92;;;;;;;0.82;100.00;97849.63;5054686;28;20017;-69
2023/01/18 02:58:08;;;;;;;53.25;22.83;;;;;;;0.85;100.00;97848.69;5053792;28;20025;-69
2023/01/18 03:00:36;;;;;;;55.58;24.20;;;;;;;0.91;100.00;97850.31;5054510;28;20462;-70
2023/01/18 03:03:04;;;;;;;48.58;23.85;;;;;;;0.94;100.00;97849.34;5053671;28;20025;-70
2023/01/18 03:05:30;;;;;;;55.95;23.63;;;;;;;0.97;100.00;97858.81;5054359;28;20109;-69
2023/01/18 03:08:36;;;;;;;51.85;22.95;;;;;;;1.01;100.00;97853.78;5053221;28;20048;-69
2023/01/18 03:11:04;;;;;;;52.80;23.92;;;;;;;1.07;100.00;97851.81;5053070;28;20115;-69
2023/01/18 03:13:39;;;;;;;48.22;23.65;;;;;;;1.10;100.00;97850.84;5054304;28;20079;-69
2023/01/18 03:16:09;;;;;;;45.25;23.90;;;;;;;1.17;100.00;97855.28;5053186;28;20062;-70
2023/01/18 03:18:59;;;;;;;52.42;24.80;;;;;;;1.19;100.00;97847.91;5052984;28;20025;-69
2023/01/18 03:21:42;;;;;;;59.42;25.30;;;;;;;1.25;100.00;97862.06;5029115;28;20084;-69
2023/01/18 03:24:09;;;;;;;50.97;24.02;;;;;;;1.24;100.00;97849.25;5052979;28;20029;-68
2023/01/18 03:26:38;;;;;;;48.63;25.38;;;;;;;1.25;100.00;97851.59;5053211;28;20108;-69
2023/01/18 03:35:10;;;;;;;50.08;24.73;;;;;;;1.37;100.00;97855.31;5053050;28;20032;-69
2023/01/18 03:37:39;;;;;;;49.70;26.15;;;;;;;1.40;100.00;97849.47;5053118;28;20028;-69
2023/01/18 03:40:26;;;;;;;58.80;26.42;;;;;;;1.42;100.00;97844.16;5051891;28;20025;-70
2023/01/18 03:43:11;;;;;;;60.22;30.13;;;;;;;1.51;100.00;97853.72;5050477;28;20020;-68
2023/01/18 03:45:41;;;;;;;63.20;29.52;;;;;;;1.52;100.00;97847.59;5050355;28;20047;-71
2023/01/18 03:48:07;;;;;;;69.03;29.70;;;;;;;1.53;100.00;97851.97;5051906;28;20099;-68
2023/01/18 03:50:52;;;;;;;56.15;29.00;;;;;;;1.57;100.00;97846.91;5051823;28;20108;-69
2023/01/18 03:54:05;;;;;;;51.13;26.17;;;;;;;1.54;100.00;97839.44;5051720;28;20032;-67
2023/01/18 03:56:57;;;;;;;52.20;24.67;;;;;;;1.56;100.00;97836.13;4992388;28;20100;-68
2023/01/18 03:59:22;;;;;;;50.57;25.33;;;;;;;1.53;100.00;97831.50;5051248;28;20120;-68
2023/01/18 04:01:48;;;;;;;48.63;25.48;;;;;;;1.51;100.00;97836.81;5052446;28;20117;-69
2023/01/18 04:04:13;;;;;;;51.08;24.70;;;;;;;1.52;100.00;97839.16;5053342;28;20021;-70
2023/01/18 04:06:39;;;;;;;51.28;25.30;;;;;;;1.54;100.00;97833.81;5052170;28;20470;-69
2023/01/18 04:09:05;;;;;;;62.42;27.05;;;;;;;1.45;100.00;97812.19;5053614;28;20024;-69
2023/01/18 04:11:30;;;;;;;52.72;26.67;;;;;;;1.42;100.00;97815.22;5053401;28;20017;-69
2023/01/18 04:13:56;;;;;;;58.53;28.73;;;;;;;1.29;100.00;97801.53;5053447;28;20036;-68
2023/01/18 04:16:21;;;;;;;58.30;26.30;;;;;;;1.21;100.00;97800.38;5053433;28;20102;-69
2023/01/18 04:18:47;;;;;;;60.72;27.80;;;;;;;1.24;100.00;97793.78;5053394;28;20488;-69
2023/01/18 04:21:12;;;;;;;58.38;28.00;;;;;;;1.21;100.00;97797.56;5053252;28;20463;-69
2023/01/18 04:23:37;;;;;;;59.17;26.85;;;;;;;1.21;100.00;97794.75;5053012;28;20013;-68
2023/01/18 04:26:03;;;;;;;55.03;28.20;;;;;;;1.21;100.00;97791.16;5053247;28;20025;-68
2023/01/18 04:28:28;;;;;;;62.60;28.63;;;;;;;1.18;100.00;97786.53;5053433;28;20425;-68
2023/01/18 04:30:55;;;;;;;58.88;29.50;;;;;;;1.31;100.00;97807.41;5052002;28;20095;-69
2023/01/18 04:33:22;;;;;;;60.70;26.85;;;;;;;1.27;100.00;97800.47;5053433;28;20067;-68
2023/01/18 04:35:48;;;;;;;54.67;26.73;;;;;;;1.42;100.00;97832.13;5035181;28;20478;-68
2023/01/18 04:38:14;;;;;;;64.55;28.77;;;;;;;1.43;100.00;97842.09;5052178;28;20061;-68
2023/01/18 04:40:39;;;;;;;60.72;29.65;;;;;;;1.48;100.00;97847.81;5053015;28;20025;-69
2023/01/18 04:43:05;;;;;;;67.90;29.25;;;;;;;1.43;100.00;97825.22;5051852;28;20032;-68
2023/01/18 04:45:30;;;;;;;65.97;29.65;;;;;;;1.58;100.00;97840.00;5052969;28;20013;-69
2023/01/18 04:47:56;;;;;;;63.67;30.67;;;;;;;1.58;100.00;97842.81;5035169;28;20577;-69
2023/01/18 04:50:22;;;;;;;65.13;30.00;;;;;;;1.66;100.00;97841.13;5051666;28;20078;-68
2023/01/18 04:52:47;;;;;;;62.33;30.00;;;;;;;1.69;100.00;97839.38;5052010;28;20082;-69
2023/01/18 04:55:14;;;;;;;69.47;31.13;;;;;;;1.73;100.00;97842.75;5053114;28;20021;-68
2023/01/18 04:57:41;;;;;;;60.85;29.17;;;;;;;1.80;100.00;97833.84;5052963;28;20033;-69
2023/01/18 05:00:08;;;;;;;56.72;28.90;;;;;;;1.79;100.00;97821.06;5052930;28;20086;-69
2023/01/18 05:02:33;;;;;;;60.92;31.08;;;;;;;1.77;100.00;97832.81;5052909;28;20108;-69
2023/01/18 05:04:59;;;;;;;58.45;28.67;;;;;;;1.78;100.00;97844.84;5052564;28;20665;-69
2023/01/18 05:07:25;;;;;;;63.97;34.03;;;;;;;1.81;100.00;97869.97;5053178;28;20033;-69
2023/01/18 05:09:50;;;;;;;70.47;35.47;;;;;;;1.84;100.00;97874.63;5051774;28;20393;-69
2023/01/18 05:12:15;;;;;;;75.00;39.75;;;;;;;1.87;100.00;97868.00;5052775;28;20032;-69
2023/01/18 05:14:41;;;;;;;57.90;30.05;;;;;;;1.88;100.00;97874.41;5052848;28;20025;-69
2023/01/18 05:17:06;;;;;;;61.60;30.35;;;;;;;1.86;100.00;97865.69;5052771;28;20032;-68
2023/01/18 05:19:32;;;;;;;56.35;29.10;;;;;;;1.82;100.00;97856.69;5052637;28;20029;-68
2023/01/18 05:21:57;;;;;;;70.85;31.42;;;;;;;1.87;100.00;97847.53;5051421;28;20036;-68
2023/01/18 05:24:25;;;;;;;82.82;39.55;;;;;;;1.86;100.00;97843.16;5052697;28;20037;-69
2023/01/18 05:26:50;;;;;;;69.43;34.92;;;;;;;1.82;100.00;97836.97;5052504;28;20045;-70
2023/01/18 05:29:17;;;;;;;60.03;30.85;;;;;;;1.92;100.00;97844.78;5051580;28;20035;-68
2023/01/18 05:31:43;;;;;;;65.25;30.40;;;;;;;1.94;100.00;97832.25;5050688;28;20061;-72
2023/01/18 05:34:10;;;;;;;59.60;29.23;;;;;;;1.90;100.00;97832.44;5052406;28;20021;-70
2023/01/18 05:36:36;;;;;;;57.63;28.55;;;;;;;1.84;100.00;97826.78;5055930;28;20032;-69
2023/01/18 05:39:01;;;;;;;63.10;28.83;;;;;;;1.78;100.00;97813.91;5054812;28;20025;-70
2023/01/18 05:41:27;;;;;;;58.65;29.23;;;;;;;1.79;100.00;97818.25;5054565;28;20144;-69
2023/01/18 05:43:53;;;;;;;59.78;30.50;;;;;;;1.75;100.00;97818.44;5056192;28;20053;-70
2023/01/18 05:46:21;;;;;;;59.40;29.48;;;;;;;1.73;100.00;97818.19;5068390;28;20060;-69
2023/01/18 05:48:46;;;;;;;60.70;28.85;;;;;;;1.73;100.00;97815.38;5074568;28;20121;-70
2023/01/18 05:51:12;;;;;;;61.70;31.20;;;;;;;1.66;100.00;97821.41;5057359;28;20079;-69
2023/01/18 05:53:40;;;;;;;62.92;30.95;;;;;;;1.64;100.00;97823.19;5075068;28;20067;-70
2023/01/18 05:56:06;;;;;;;75.65;34.72;;;;;;;1.66;100.00;97826.28;5075923;28;20060;-68
2023/01/18 05:58:33;;;;;;;63.15;29.73;;;;;;;1.68;100.00;97832.97;5075933;28;20116;-69
2023/01/18 06:01:00;;;;;;;52.78;27.60;;;;;;;1.71;100.00;97839.63;5074884;28;20029;-70
2023/01/18 06:03:26;;;;;;;60.90;27.00;;;;;;;1.70;100.00;97843.75;5057779;28;20465;-71
2023/01/18 06:05:53;;;;;;;49.55;25.05;;;;;;;1.67;100.00;97833.47;5073376;28;20057;-73
2023/01/18 06:08:20;;;;;;;51.17;27.10;;;;;;;1.68;100.00;97832.97;5074406;28;20037;-72
2023/01/18 06:10:57;;;;;;;54.38;27.50;;;;;;;1.61;100.00;97833.38;5074585;28;20036;-73
2023/01/18 06:13:26;;;;;;;57.50;26.30;;;;;;;1.52;100.00;97832.75;5074222;28;20105;-73
2023/01/18 06:15:55;;;;;;;50.97;26.70;;;;;;;1.44;100.00;97832.41;5074652;28;20059;-71
2023/01/18 06:18:23;;;;;;;50.45;27.50;;;;;;;1.41;100.00;97836.19;5074215;28;20063;-74
2023/01/18 06:20:48;;;;;;;51.30;27.80;;;;;;;1.43;100.00;97842.09;5073963;28;20064;-74
2023/01/18 06:23:16;;;;;;;55.25;27.60;;;;;;;1.44;100.00;97836.00;5075340;28;20400;-71
2023/01/18 06:25:42;;;;;;;54.38;27.77;;;;;;;1.45;100.00;97840.34;5073200;28;20029;-73
2023/01/18 06:28:08;;;;;;;54.97;28.67;;;;;;;1.43;100.00;97839.28;5074687;28;20412;-72
2023/01/18 06:30:35;;;;;;;53.28;27.05;;;;;;;1.38;100.00;97840.78;5082053;28;20051;-70
2023/01/18 06:33:05;;;;;;;55.67;25.92;;;;;;;1.37;100.00;97836.41;5095720;28;20052;-72
2023/01/18 06:35:37;;;;;;;59.53;27.75;;;;;;;1.35;100.00;97832.56;5095298;28;20105;-70
2023/01/18 06:38:04;;;;;;;53.90;28.50;;;;;;;1.28;100.00;97833.72;5087577;28;20535;-72
2023/01/18 06:40:29;;;;;;;51.25;28.00;;;;;;;1.25;100.00;97829.09;5059649;28;20035;-77
2023/01/18 06:42:55;;;;;;;54.25;27.85;;;;;;;1.18;100.00;97823.09;5093109;28;20032;-76
2023/01/18 06:45:21;;;;;;;59.40;29.30;;;;;;;1.21;100.00;97833.34;5092867;28;20028;-75
2023/01/18 06:47:49;;;;;;;54.67;28.27;;;;;;;1.18;100.00;97823.88;5092810;28;20030;-75
2023/01/18 06:50:15;;;;;;;57.95;27.45;;;;;;;1.18;100.00;97821.06;5074583;28;20077;-77
2023/01/18 06:52:42;;;;;;;52.45;25.38;;;;;;;1.20;100.00;97820.56;5092808;28;20469;-76
2023/01/18 06:55:08;;;;;;;49.75;24.98;;;;;;;1.25;100.00;97812.22;5075102;28;20069;-76
2023/01/18 06:57:33;;;;;;;53.20;27.98;;;;;;;1.27;100.00;97820.16;5092707;28;20028;-76
2023/01/18 07:00:00;;;;;;;45.90;23.80;;;;;;;1.26;100.00;97815.78;5092678;28;20055;-76
2023/01/18 07:02:27;;;;;;;49.78;23.92;;;;;;;1.31;100.00;97827.09;5092810;28;20027;-79
2023/01/18 07:04:53;;;;;;;44.47;21.10;;;;;;;1.35;100.00;97824.88;5092931;28;20062;-77
2023/01/18 07:07:18;;;;;;;43.92;23.23;;;;;;;1.37;100.00;97827.19;5093440;28;20024;-77
2023/01/18 07:09:44;;;;;;;49.22;24.30;;;;;;;1.41;100.00;97827.75;5092906;28;20100;-77
2023/01/18 07:12:09;;;;;;;44.78;22.02;;;;;;;1.47;100.00;97828.59;5093540;28;20024;-76
2023/01/18 07:14:34;;;;;;;43.35;22.83;;;;;;;1.55;100.00;97828.97;5076618;28;20027;-76
2023/01/18 07:17:00;;;;;;;48.70;23.30;;;;;;;1.57;100.00;97834.88;5094529;28;20575;-75
2023/01/18 07:19:25;;;;;;;43.53;22.27;;;;;;;1.60;100.00;97826.19;5094788;28;20027;-76
2023/01/18 07:21:52;;;;;;;45.60;21.25;;;;;;;1.57;100.00;97826.41;5076395;28;20031;-76
2023/01/18 07:24:18;;;;;;;40.53;22.20;;;;;;;1.65;100.00;97836.75;5094636;28;20024;-76
2023/01/18 07:26:43;;;;;;;42.63;22.70;;;;;;;1.65;100.00;97842.38;5076278;28;20380;-76
2023/01/18 07:29:09;;;;;;;41.38;19.55;;;;;;;1.74;100.00;97847.13;5094575;28;20492;-77
2023/01/18 07:31:37;;;;;;;43.10;21.27;;;;;;;1.79;100.00;97843.59;5094366;28;20043;-77
2023/01/18 07:34:02;;;;;;;39.33;20.75;;;;;;;1.82;100.00;97849.00;5094534;28;20040;-76
2023/01/18 07:36:28;;;;;;;39.03;20.08;;;;;;;1.85;100.00;97836.75;5094686;28;20104;-76
2023/01/18 07:38:53;;;;;;;37.45;19.95;;;;;;;1.85;100.00;97845.19;5094879;28;20073;-76
2023/01/18 07:41:19;;;;;;;38.95;17.65;;;;;;;1.87;100.00;97839.06;5094944;28;20413;-75
2023/01/18 07:43:44;;;;;;;31.38;17.40;;;;;;;1.86;100.00;97841.13;5094614;28;20353;-76
2023/01/18 07:46:12;;;;;;;29.92;16.90;;;;;;;1.86;100.00;97845.97;5075672;28;20032;-75
2023/01/18 07:48:38;;;;;;;36.40;16.23;;;;;;;1.83;100.00;97841.34;5093918;28;20059;-76
2023/01/18 07:51:05;;;;;;;25.55;14.95;;;;;;;1.92;100.00;97852.44;5075678;28;20453;-75
2023/01/18 07:53:32;;;;;;;27.13;15.48;;;;;;;1.99;100.00;97845.63;5075530;28;20496;-77
2023/01/18 07:56:02;;;;;;;30.02;14.73;;;;;;;2.09;100.00;97847.00;5059044;28;20020;-75
2023/01/18 07:58:28;;;;;;;28.77;15.43;;;;;;;2.14;100.00;97852.72;5093559;28;20031;-74
2023/01/18 08:00:53;;;;;;;29.58;15.88;;;;;;;2.23;100.00;97846.91;5093932;28;20461;-75
2023/01/18 08:03:19;;;;;;;33.13;15.52;;;;;;;2.25;100.00;97852.81;5093748;28;20039;-76
2023/01/18 08:05:46;;;;;;;35.00;16.10;;;;;;;2.24;100.00;97854.06;5093652;28;20111;-75
2023/01/18 08:08:14;;;;;;;30.55;16.13;;;;;;;2.22;100.00;97853.81;5075859;28;20032;-75
2023/01/18 08:10:41;;;;;;;32.25;14.38;;;;;;;2.17;100.00;97854.53;5058717;28;20173;-72
2023/01/18 08:13:09;;;;;;;26.90;15.23;;;;;;;2.14;100.00;97855.53;5058841;28;20381;-72
2023/01/18 08:15:36;;;;;;;28.13;14.85;;;;;;;2.17;100.00;97865.00;5075029;28;20535;-72
2023/01/18 08:18:06;;;;;;;27.48;15.45;;;;;;;2.22;100.00;97864.28;5093668;28;20379;-71
2023/01/18 08:20:33;;;;;;;29.23;13.75;;;;;;;2.25;100.00;97861.25;5093349;28;20503;-72
2023/01/18 08:23:01;;;;;;;29.23;14.77;;;;;;;2.33;100.00;97864.41;5093430;28;20035;-70
2023/01/18 08:25:28;;;;;;;25.13;14.35;;;;;;;2.40;100.00;97868.81;5093697;28;20380;-70
2023/01/18 08:28:03;;;;;;;26.42;14.70;;;;;;;2.45;100.00;97876.56;5042202;28;20472;-70
2023/01/18 08:30:39;;;;;;;27.98;14.90;;;;;;;2.47;100.00;97876.84;5093078;28;20120;-75
2023/01/18 08:33:06;;;;;;;23.85;13.38;;;;;;;2.55;100.00;97881.53;5093709;28;20028;-76
2023/01/18 08:35:38;;;;;;;28.77;14.10;;;;;;;2.58;100.00;97880.56;5071262;28;20476;-77
2023/01/18 08:38:04;;;;;;;27.95;14.02;;;;;;;2.66;100.00;97887.28;5059705;28;20097;-72
2023/01/18 08:40:30;;;;;;;22.45;13.80;;;;;;;2.65;100.00;97877.28;5093677;28;20356;-71
2023/01/18 08:42:57;;;;;;;23.33;14.13;;;;;;;2.67;100.00;97891.66;5075460;28;20028;-70
2023/01/18 08:45:24;;;;;;;25.67;13.93;;;;;;;2.66;100.00;97895.75;5075335;28;20059;-69
2023/01/18 08:48:08;;;;;;;29.25;16.27;;;;;;;2.66;100.00;97898.56;5074918;28;20039;-70
2023/01/18 08:50:34;;;;;;;28.67;16.02;;;;;;;2.64;100.00;97901.09;5075805;28;20072;-69
2023/01/18 08:53:01;;;;;;;35.75;18.00;;;;;;;2.62;100.00;97889.56;5075586;28;20063;-70
2023/01/18 08:55:28;;;;;;;34.92;17.88;;;;;;;2.63;100.00;97887.53;5075235;28;20028;-71
2023/01/18 08:57:56;;;;;;;36.85;18.52;;;;;;;2.64;100.00;97884.19;5075038;28;20035;-71
2023/01/18 09:00:23;;;;;;;33.17;17.20;;;;;;;2.72;100.00;97887.34;5041864;28;20036;-70
2023/01/18 09:02:48;;;;;;;44.72;18.40;;;;;;;2.75;100.00;97889.16;5075273;28;20024;-70
2023/01/18 09:05:14;;;;;;;31.92;16.75;;;;;;;2.70;100.00;97896.28;5074883;28;20047;-71
2023/01/18 09:07:40;;;;;;;35.00;16.90;;;;;;;2.74;100.00;97904.53;5075372;28;20080;-71
2023/01/18 09:10:07;;;;;;;34.80;17.63;;;;;;;2.70;100.00;97898.34;5092157;28;20430;-70
2023/01/18 09:12:34;;;;;;;35.78;17.00;;;;;;;2.70;100.00;97909.63;5097083;28;20127;-70
2023/01/18 09:14:59;;;;;;;30.75;17.98;;;;;;;2.66;100.00;97914.72;5062231;28;20028;-69
2023/01/18 09:17:40;;;;;;;32.63;16.27;;;;;;;2.64;100.00;97925.69;5079283;28;20027;-70
2023/01/18 09:20:10;;;;;;;36.85;17.42;;;;;;;2.65;100.00;97935.69;5097019;28;20531;-69
2023/01/18 09:22:46;;;;;;;36.67;19.80;;;;;;;2.65;100.00;97938.53;5079101;28;20027;-70
2023/01/18 09:25:12;;;;;;;36.22;20.13;;;;;;;2.62;100.00;97939.53;5096600;28;20035;-70
2023/01/18 09:27:38;;;;;;;32.90;19.75;;;;;;;2.61;100.00;97935.94;5096560;28;20443;-71
2023/01/18 09:30:06;;;;;;;36.75;19.42;;;;;;;2.57;100.00;97940.25;5096181;28;20110;-69
2023/01/18 09:32:31;;;;;;;36.22;19.00;;;;;;;2.56;100.00;97938.69;5096459;28;20077;-72
2023/01/18 09:35:00;;;;;;;35.42;19.25;;;;;;;2.57;100.00;97941.03;5061698;28;20020;-71
2023/01/18 09:37:26;;;;;;;36.85;18.95;;;;;;;2.58;100.00;97942.56;5096837;28;20047;-69
2023/01/18 09:39:52;;;;;;;34.92;20.10;;;;;;;2.57;100.00;97938.19;5096266;28;20429;-71
2023/01/18 09:42:21;;;;;;;38.85;22.88;;;;;;;2.65;100.00;97939.28;5061416;28;20484;-71
2023/01/18 09:44:51;;;;;;;38.03;22.40;;;;;;;2.75;100.00;97937.88;5044940;28;20028;-73
2023/01/18 09:47:42;;;;;;;40.15;21.25;;;;;;;2.85;100.00;97937.69;5061677;28;20032;-69
2023/01/18 09:50:19;;;;;;;36.95;20.92;;;;;;;2.90;100.00;97946.22;5078160;28;20103;-71
2023/01/18 09:52:54;;;;;;;41.00;20.55;;;;;;;2.92;100.00;97935.22;5078517;28;20024;-69
2023/01/18 09:55:46;;;;;;;35.13;19.85;;;;;;;2.98;100.00;97933.19;5078250;28;20027;-70
2023/01/18 09:58:23;;;;;;;40.22;21.35;;;;;;;3.06;100.00;97925.84;5096322;28;20071;-73
2023/01/18 10:00:48;;;;;;;34.70;18.98;;;;;;;3.14;100.00;97915.63;5077642;28;20376;-74
2023/01/18 10:03:22;;;;;;;36.13;20.15;;;;;;;3.30;100.00;97925.50;5078291;28;20035;-70
2023/01/18 10:06:07;;;;;;;32.40;19.13;;;;;;;3.39;100.00;97919.69;5078217;28;20487;-70
2023/01/18 10:08:54;;;;;;;34.58;19.33;;;;;;;3.38;100.00;97904.00;5080004;28;20027;-68
2023/01/18 10:11:30;;;;;;;35.45;17.27;;;;;;;3.55;100.00;97923.91;5077898;28;20023;-69
2023/01/18 10:14:14;;;;;;;33.30;17.23;;;;;;;3.60;100.00;97920.34;5096131;28;20030;-70
2023/01/18 10:16:39;;;;;;;37.90;19.25;;;;;;;3.53;100.00;97927.22;5095895;28;20102;-72
2023/01/18 10:19:14;;;;;;;30.95;18.73;;;;;;;3.56;100.00;97925.44;5077797;28;20476;-72
2023/01/18 10:21:55;;;;;;;31.92;17.27;;;;;;;3.53;100.00;97921.56;5077147;28;20047;-69
2023/01/18 10:24:29;;;;;;;29.83;17.57;;;;;;;3.46;100.00;97921.28;5095946;28;20085;-71
2023/01/18 10:27:15;;;;;;;31.80;20.15;;;;;;;3.40;100.00;97918.41;5077792;28;20038;-76
2023/01/18 10:29:48;;;;;;;35.95;20.55;;;;;;;3.55;100.00;97926.72;5096053;28;20436;-76
2023/01/18 10:32:18;;;;;;;34.85;17.88;;;;;;;3.63;100.00;97927.78;5055924;28;20041;-71
2023/01/18 10:34:47;;;;;;;33.17;19.50;;;;;;;3.71;100.00;97925.28;5055628;28;20029;-71
2023/01/18 10:37:44;;;;;;;34.25;20.67;;;;;;;3.82;100.00;97937.41;5054251;28;20021;-71
2023/01/18 10:40:12;;;;;;;33.65;16.73;;;;;;;3.86;100.00;97942.84;5051657;28;20040;-74
2023/01/18 10:42:48;;;;;;;36.97;17.98;;;;;;;3.87;100.00;97942.34;5055434;28;20071;-71
2023/01/18 10:45:19;;;;;;;42.50;20.40;;;;;;;3.90;100.00;97947.00;5054009;28;20109;-72
2023/01/18 10:47:49;;;;;;;29.42;17.85;;;;;;;3.90;100.00;97952.63;5037902;28;20040;-71
2023/01/18 10:50:18;;;;;;;31.60;16.85;;;;;;;3.84;100.00;97946.16;5055190;28;20029;-70
2023/01/18 10:52:44;;;;;;;40.03;18.65;;;;;;;3.82;100.00;97953.59;5054697;28;20037;-72
2023/01/18 10:55:17;;;;;;;37.58;17.45;;;;;;;3.84;100.00;97951.78;5053761;28;20040;-71
2023/01/18 10:57:52;;;;;;;34.92;17.85;;;;;;;3.88;100.00;97948.75;5037732;28;20090;-71
2023/01/18 11:00:29;;;;;;;40.17;17.83;;;;;;;3.87;100.00;97952.88;5021209;28;20485;-71
2023/01/18 11:03:10;;;;;;;30.10;16.83;;;;;;;3.88;100.00;97958.00;5055021;28;20033;-70
2023/01/18 11:05:39;;;;;;;34.17;17.15;;;;;;;3.88;100.00;97974.97;5036928;28;20112;-71
2023/01/18 11:08:33;;;;;;;29.38;15.50;;;;;;;3.86;100.00;97969.03;5036938;28;20056;-70
2023/01/18 11:11:05;;;;;;;30.50;15.80;;;;;;;3.88;100.00;97966.47;5054660;28;20024;-70
2023/01/18 11:13:44;;;;;;;31.05;15.38;;;;;;;3.86;100.00;97968.25;5054401;28;20082;-71
2023/01/18 11:16:22;;;;;;;28.77;16.40;;;;;;;3.82;100.00;97960.00;5053337;28;20081;-71
2023/01/18 11:19:18;;;;;;;30.92;16.63;;;;;;;3.84;100.00;97959.50;5054782;28;20501;-71
2023/01/18 11:21:48;;;;;;;32.20;18.77;;;;;;;3.88;100.00;97954.41;5054696;28;20474;-71
2023/01/18 11:24:18;;;;;;;36.65;18.65;;;;;;;3.93;100.00;97962.13;5054401;28;20029;-70
2023/01/18 11:27:15;;;;;;;31.45;18.30;;;;;;;3.95;100.00;97954.72;5054273;28;20458;-70
2023/01/18 11:29:50;;;;;;;34.67;18.33;;;;;;;4.03;100.00;97969.91;5053598;28;20043;-71
2023/01/18 11:32:28;;;;;;;34.67;17.38;;;;;;;4.05;100.00;97970.19;5053422;28;20041;-74
2023/01/18 11:35:03;;;;;;;33.10;16.95;;;;;;;4.10;100.00;97977.16;5036474;28;20029;-73
2023/01/18 11:37:37;;;;;;;43.75;17.90;;;;;;;4.09;100.00;97967.13;5053032;28;20033;-72
2023/01/18 11:40:26;;;;;;;38.38;17.88;;;;;;;4.05;100.00;97983.53;5053234;28;20021;-74
2023/01/18 11:43:08;;;;;;;25.52;17.05;;;;;;;4.00;100.00;97982.22;5054401;28;20024;-74
2023/01/18 11:45:59;;;;;;;43.38;16.35;;;;;;;4.06;100.00;97983.03;5021701;28;20033;-71
2023/01/18 11:48:48;;;;;;;33.80;17.30;;;;;;;4.14;100.00;97991.03;5054315;28;20028;-74
2023/01/18 11:51:33;;;;;;;47.67;21.38;;;;;;;4.18;100.00;97988.72;5053803;28;20287;-72
2023/01/18 11:54:11;;;;;;;47.15;22.90;;;;;;;4.17;100.00;97987.97;5052680;28;20470;-72
2023/01/18 11:56:49;;;;;;;62.00;26.02;;;;;;;4.14;100.00;97985.38;5054016;28;20028;-74
2023/01/18 11:59:31;;;;;;;46.17;22.60;;;;;;;4.13;100.00;98000.78;5053826;28;20104;-74
2023/01/18 12:02:17;;;;;;;44.10;23.48;;;;;;;4.17;100.00;98001.34;5019577;28;20031;-72